Time;durP1;ratioP1;P1;durP2;ratioP2;P2;SDS_P1;SDS_P2;PMS_P1;PMS_P2;Temp;Humidity;BMP_temperature;BMP_pressure;BME280_temperature;BME280_humidity;BME280_pressure;Samples;Min_cycle;Max_cycle;Signal;HPM_P1;HPM_P2
2023/10/19 00:01:39;;;;;;;6.80;6.30;;;9.30;99.90;;;;;;5013914;28;20041;-86
2023/10/19 00:04:07;;;;;;;6.70;6.22;;;9.10;99.90;;;;;;5057745;28;20740;-86
2023/10/19 00:06:32;;;;;;;6.78;6.28;;;9.20;99.90;;;;;;5013348;28;20041;-86
2023/10/19 00:08:59;;;;;;;6.55;6.15;;;9.10;99.90;;;;;;5012129;28;20049;-87
2023/10/19 00:11:26;;;;;;;6.50;6.10;;;9.10;99.90;;;;;;5031320;28;20045;-86
2023/10/19 00:13:55;;;;;;;6.22;5.82;;;9.20;99.90;;;;;;5060003;28;20128;-88
2023/10/19 00:16:29;;;;;;;6.40;6.00;;;9.20;99.90;;;;;;5043215;28;20679;-86
2023/10/19 00:18:59;;;;;;;6.25;5.85;;;9.20;99.90;;;;;;5017388;28;20045;-87
2023/10/19 00:21:25;;;;;;;6.28;5.88;;;9.50;99.90;;;;;;5039329;28;20494;-86
2023/10/19 00:23:57;;;;;;;6.25;5.85;;;9.40;99.90;;;;;;5015813;28;20056;-86
2023/10/19 00:26:29;;;;;;;5.80;5.40;;;9.40;99.90;;;;;;5010158;28;20080;-89
2023/10/19 00:28:55;;;;;;;6.10;5.70;;;9.50;99.90;;;;;;5031885;28;20181;-85
2023/10/19 00:31:27;;;;;;;5.70;5.30;;;9.30;99.90;;;;;;5060326;28;20154;-85
2023/10/19 00:33:54;;;;;;;5.70;5.30;;;9.30;99.90;;;;;;5010060;28;20059;-88
2023/10/19 00:36:21;;;;;;;5.72;5.32;;;9.40;99.90;;;;;;5017434;28;20085;-85
2023/10/19 00:41:32;;;;;;;5.90;5.50;;;9.20;99.90;;;;;;5031390;28;20072;-88
2023/10/19 00:44:11;;;;;;;5.90;5.50;;;9.20;99.90;;;;;;5029291;28;20055;-87
2023/10/19 00:49:09;;;;;;;5.40;5.00;;;9.20;99.90;;;;;;5032954;28;20537;-87
2023/10/19 00:51:55;;;;;;;5.50;5.10;;;9.30;99.90;;;;;;5018303;28;20049;-87
2023/10/19 00:54:38;;;;;;;5.63;5.22;;;9.60;99.90;;;;;;5030188;28;20566;-88
2023/10/19 00:57:10;;;;;;;5.47;5.07;;;9.60;99.90;;;;;;5015787;28;20110;-86
2023/10/19 01:00:11;;;;;;;5.63;5.22;;;9.50;99.90;;;;;;5028442;28;20076;-87
2023/10/19 01:02:43;;;;;;;5.70;5.30;;;9.60;99.90;;;;;;5014712;28;20974;-86
2023/10/19 01:05:12;;;;;;;5.50;5.10;;;9.40;99.90;;;;;;5035409;28;20487;-88
2023/10/19 01:07:40;;;;;;;5.22;4.93;;;9.40;99.90;;;;;;5032500;28;20044;-86
2023/10/19 01:10:20;;;;;;;5.07;4.78;;;9.60;99.90;;;;;;5031998;28;20134;-87
2023/10/19 01:12:46;;;;;;;5.95;5.55;;;9.30;99.90;;;;;;5014830;28;20045;-87
2023/10/19 01:15:29;;;;;;;5.95;5.55;;;9.30;99.90;;;;;;5032500;28;20399;-87
2023/10/19 01:17:59;;;;;;;6.03;5.63;;;9.60;99.90;;;;;;5064841;28;20039;-86
2023/10/19 01:25:42;;;;;;;5.45;5.05;;;9.30;99.90;;;;;;5032422;28;20495;-86
2023/10/19 01:28:10;;;;;;;5.10;4.80;;;9.30;99.90;;;;;;5024610;28;20045;-89
2023/10/19 01:30:38;;;;;;;5.13;4.82;;;9.30;99.90;;;;;;5032650;28;20486;-86
2023/10/19 01:33:12;;;;;;;5.40;5.00;;;9.40;99.90;;;;;;5037541;28;20436;-87
2023/10/19 01:38:23;;;;;;;;;;;9.80;99.90;;;;;;5037495;28;19920;-87
2023/10/19 01:40:51;;;;;;;5.55;5.15;;;9.60;99.90;;;;;;5039401;28;19920;-89
2023/10/19 01:43:25;;;;;;;5.80;5.40;;;9.70;99.90;;;;;;5022309;28;20103;-88
2023/10/19 01:45:55;;;;;;;5.70;5.30;;;9.50;99.90;;;;;;5017738;28;20040;-87
2023/10/19 01:48:23;;;;;;;5.60;5.20;;;9.70;99.90;;;;;;5038572;28;20501;-86
2023/10/19 01:50:50;;;;;;;5.15;4.85;;;9.80;99.90;;;;;;5018422;28;20208;-86
2023/10/19 01:53:17;;;;;;;4.97;4.68;;;9.80;99.90;;;;;;5029004;28;20041;-88
2023/10/19 01:55:47;;;;;;;5.10;4.80;;;9.60;99.90;;;;;;5036053;28;20135;-86
2023/10/19 01:58:14;;;;;;;4.88;4.57;;;9.80;99.90;;;;;;5031823;28;20045;-87
2023/10/19 02:00:42;;;;;;;5.03;4.72;;;9.80;99.90;;;;;;5034337;28;20051;-86
2023/10/19 02:03:08;;;;;;;5.20;4.90;;;9.50;99.90;;;;;;5051179;28;20083;-87
2023/10/19 02:05:41;;;;;;;4.85;4.55;;;9.90;99.90;;;;;;5050498;28;20044;-87
2023/10/19 02:08:07;;;;;;;5.05;4.75;;;9.40;99.90;;;;;;5038445;28;20052;-86
2023/10/19 02:10:37;;;;;;;4.90;4.60;;;9.40;99.90;;;;;;5063704;28;20044;-87
2023/10/19 02:13:06;;;;;;;4.72;4.43;;;9.90;99.90;;;;;;5019886;28;20147;-87
2023/10/19 02:15:36;;;;;;;4.88;4.57;;;9.80;99.90;;;;;;5030232;28;20119;-87
2023/10/19 02:18:03;;;;;;;4.47;4.18;;;9.60;99.90;;;;;;5050894;28;20052;-85
2023/10/19 02:20:29;;;;;;;4.50;4.20;;;9.60;99.90;;;;;;5034648;28;20045;-87
2023/10/19 02:22:57;;;;;;;4.68;4.38;;;10.00;99.90;;;;;;5031469;28;20521;-88
2023/10/19 02:25:31;;;;;;;4.40;4.10;;;9.60;99.90;;;;;;5022937;28;20091;-87
2023/10/19 02:27:56;;;;;;;4.70;4.40;;;9.40;99.90;;;;;;5022401;28;20044;-86
2023/10/19 02:30:24;;;;;;;4.60;4.30;;;10.00;99.90;;;;;;5021576;28;20037;-88
2023/10/19 02:32:50;;;;;;;4.50;4.20;;;9.70;99.90;;;;;;5034511;28;20053;-85
2023/10/19 02:35:16;;;;;;;4.57;4.28;;;9.90;99.90;;;;;;5032933;28;20091;-87
2023/10/19 02:37:42;;;;;;;4.65;4.35;;;9.50;99.90;;;;;;5029925;28;20045;-86
2023/10/19 02:40:22;;;;;;;4.30;4.00;;;9.60;99.90;;;;;;5040913;28;20041;-85
2023/10/19 02:42:48;;;;;;;4.35;4.05;;;9.60;99.90;;;;;;5019372;28;20068;-86
2023/10/19 02:45:15;;;;;;;4.65;4.35;;;10.00;99.90;;;;;;5030915;28;20822;-89
2023/10/19 02:47:43;;;;;;;4.40;4.10;;;10.00;99.90;;;;;;5032780;28;20076;-87
2023/10/19 02:50:13;;;;;;;4.50;4.20;;;9.70;99.90;;;;;;5039470;28;20103;-88
2023/10/19 02:52:38;;;;;;;4.65;4.35;;;10.10;99.90;;;;;;5017916;28;20121;-88
2023/10/19 02:55:05;;;;;;;4.45;4.15;;;10.10;99.90;;;;;;5067946;28;20044;-91
2023/10/19 02:57:31;;;;;;;4.50;4.20;;;9.70;99.90;;;;;;5039162;28;20491;-91
2023/10/19 02:59:58;;;;;;;4.60;4.30;;;10.00;99.90;;;;;;5035522;28;20053;-90
2023/10/19 03:02:25;;;;;;;4.70;4.40;;;9.60;99.90;;;;;;5016901;28;20045;-91
2023/10/19 03:04:58;;;;;;;4.90;4.60;;;10.00;99.90;;;;;;5025146;28;20036;-87
2023/10/19 03:07:24;;;;;;;4.70;4.40;;;9.80;99.90;;;;;;5034032;28;20044;-90
2023/10/19 03:09:53;;;;;;;4.63;4.32;;;9.90;99.90;;;;;;5040332;28;20075;-90
2023/10/19 03:12:20;;;;;;;4.40;4.10;;;9.70;99.90;;;;;;5018876;28;20082;-91
2023/10/19 03:14:49;;;;;;;4.45;4.15;;;10.10;99.90;;;;;;5022588;28;20047;-92
2023/10/19 03:17:15;;;;;;;4.55;4.25;;;9.90;99.90;;;;;;5053712;28;20063;-93
2023/10/19 03:19:42;;;;;;;4.55;4.25;;;10.20;99.90;;;;;;5048254;28;20494;-91
2023/10/19 03:22:09;;;;;;;4.57;4.28;;;9.90;99.90;;;;;;5019538;28;20041;-86
2023/10/19 03:27:23;;;;;;;4.80;4.50;;;10.10;99.90;;;;;;5032999;28;20072;-90
2023/10/19 03:29:54;;;;;;;4.55;4.25;;;9.90;99.90;;;;;;5048390;28;20038;-90
2023/10/19 03:32:27;;;;;;;4.55;4.25;;;9.90;99.90;;;;;;5023177;28;20210;-89
2023/10/19 03:34:55;;;;;;;4.70;4.40;;;10.30;99.90;;;;;;5053093;28;20084;-91
2023/10/19 03:37:24;;;;;;;4.53;4.22;;;9.90;99.90;;;;;;5020080;28;20098;-89
2023/10/19 03:39:51;;;;;;;4.75;4.45;;;9.80;99.90;;;;;;5025137;28;20072;-89
2023/10/19 03:42:17;;;;;;;4.85;4.55;;;10.20;99.90;;;;;;5013018;28;20106;-88
2023/10/19 03:47:11;;;;;;;4.95;4.65;;;10.00;99.90;;;;;;5065028;28;20040;-91
2023/10/19 03:49:39;;;;;;;4.72;4.43;;;10.50;99.90;;;;;;5050393;28;20043;-88
2023/10/19 03:54:38;;;;;;;4.70;4.40;;;10.20;99.90;;;;;;5043602;28;20405;-92
2023/10/19 03:57:06;;;;;;;4.43;4.13;;;10.20;99.90;;;;;;5015247;28;20393;-91
2023/10/19 03:59:35;;;;;;;4.85;4.55;;;10.10;99.90;;;;;;5013795;28;20049;-88
2023/10/19 04:02:07;;;;;;;4.70;4.40;;;10.30;99.90;;;;;;5033973;28;20111;-88
2023/10/19 04:04:33;;;;;;;4.80;4.50;;;10.10;99.90;;;;;;5017244;28;20126;-86
2023/10/19 04:06:59;;;;;;;4.90;4.60;;;10.50;99.90;;;;;;5033853;28;20052;-88
2023/10/19 04:09:29;;;;;;;4.60;4.30;;;10.40;99.90;;;;;;5038384;28;20063;-90
2023/10/19 04:11:56;;;;;;;4.97;4.68;;;10.30;99.90;;;;;;5051113;28;20040;-89
2023/10/19 04:14:21;;;;;;;4.80;4.50;;;10.30;99.90;;;;;;5031514;28;20056;-91
2023/10/19 04:16:48;;;;;;;4.70;4.40;;;10.60;99.90;;;;;;5014922;28;20048;-88
2023/10/19 04:19:15;;;;;;;4.65;4.35;;;10.70;99.90;;;;;;5045792;28;20145;-90
2023/10/19 04:21:46;;;;;;;4.95;4.65;;;10.60;99.90;;;;;;5015066;28;20387;-90
2023/10/19 04:24:12;;;;;;;5.00;4.70;;;10.40;99.90;;;;;;5061998;28;20573;-88
2023/10/19 04:26:38;;;;;;;4.93;4.63;;;10.90;99.90;;;;;;5041717;28;20094;-90
2023/10/19 04:29:10;;;;;;;4.93;4.63;;;10.90;99.90;;;;;;5026764;28;20049;-87
2023/10/19 04:31:49;;;;;;;4.60;4.30;;;10.70;99.90;;;;;;5040699;28;20045;-88
2023/10/19 04:34:16;;;;;;;5.00;4.70;;;10.80;99.90;;;;;;5024406;28;20052;-88
2023/10/19 04:36:42;;;;;;;4.85;4.55;;;10.40;99.90;;;;;;5029537;28;20047;-89
2023/10/19 04:39:13;;;;;;;5.20;4.90;;;10.60;99.90;;;;;;5019951;28;20048;-87
2023/10/19 04:41:40;;;;;;;4.55;4.25;;;10.20;99.90;;;;;;5031976;28;20119;-86
2023/10/19 04:44:08;;;;;;;4.72;4.43;;;10.70;99.90;;;;;;5067519;28;20048;-87
2023/10/19 04:46:34;;;;;;;4.82;4.53;;;10.60;99.90;;;;;;5038701;28;20063;-86
2023/10/19 04:49:00;;;;;;;4.85;4.55;;;10.80;99.90;;;;;;5017519;28;20048;-89
2023/10/19 04:51:26;;;;;;;4.57;4.28;;;10.70;99.90;;;;;;5024406;28;20097;-91
2023/10/19 04:53:52;;;;;;;4.65;4.35;;;10.80;99.90;;;;;;5035499;28;20041;-89
2023/10/19 04:56:18;;;;;;;4.75;4.45;;;10.80;99.90;;;;;;5040243;28;20056;-86
2023/10/19 04:58:43;;;;;;;4.55;4.25;;;10.30;99.90;;;;;;5022247;28;20063;-90
2023/10/19 05:01:11;;;;;;;4.60;4.30;;;10.30;99.90;;;;;;5036286;28;20051;-86
2023/10/19 05:03:37;;;;;;;4.65;4.35;;;10.60;99.90;;;;;;5064985;28;20044;-86
2023/10/19 05:06:03;;;;;;;4.60;4.30;;;10.60;99.90;;;;;;5013979;28;20063;-88
2023/10/19 05:08:30;;;;;;;4.75;4.45;;;10.60;99.90;;;;;;5032301;28;20051;-89
2023/10/19 05:10:56;;;;;;;4.55;4.25;;;10.70;99.90;;;;;;5039493;28;20041;-89
2023/10/19 05:13:23;;;;;;;5.28;4.93;;;10.50;99.90;;;;;;5038413;28;20486;-88
2023/10/19 05:15:49;;;;;;;4.70;4.40;;;10.90;99.90;;;;;;5040872;28;20080;-86
2023/10/19 05:18:15;;;;;;;4.80;4.50;;;10.80;99.90;;;;;;5034346;28;20072;-89
2023/10/19 05:20:40;;;;;;;5.10;4.80;;;10.80;99.90;;;;;;5016082;28;20102;-90
2023/10/19 05:23:08;;;;;;;5.13;4.82;;;10.60;99.90;;;;;;5020858;28;20052;-87
2023/10/19 05:25:36;;;;;;;5.18;4.85;;;10.50;99.90;;;;;;5018972;28;20143;-90
2023/10/19 05:28:06;;;;;;;4.95;4.65;;;11.00;99.90;;;;;;5019482;28;20057;-89
2023/10/19 05:30:33;;;;;;;5.35;5.00;;;10.90;99.90;;;;;;5017890;28;20124;-87
2023/10/19 05:33:01;;;;;;;5.75;5.35;;;11.10;99.90;;;;;;5036433;28;20045;-90
2023/10/19 05:35:28;;;;;;;5.63;5.22;;;11.10;99.90;;;;;;5056975;28;20041;-88
2023/10/19 05:37:56;;;;;;;5.82;5.43;;;10.70;99.90;;;;;;5026865;28;20045;-88
2023/10/19 05:40:23;;;;;;;6.05;5.65;;;11.10;99.90;;;;;;5018813;28;20044;-90
2023/10/19 05:42:49;;;;;;;5.80;5.40;;;10.60;99.90;;;;;;5017069;28;20051;-88
2023/10/19 05:45:18;;;;;;;5.85;5.45;;;11.00;99.90;;;;;;5037938;28;20131;-88
2023/10/19 05:47:44;;;;;;;6.03;5.63;;;10.60;99.90;;;;;;5019087;28;20045;-90
2023/10/19 05:50:14;;;;;;;6.30;5.90;;;11.00;99.90;;;;;;5057443;28;20049;-89
2023/10/19 05:52:42;;;;;;;6.00;5.60;;;11.10;99.90;;;;;;5022264;28;20081;-90
2023/10/19 05:55:09;;;;;;;6.68;6.28;;;10.90;99.90;;;;;;5050587;28;20077;-89
2023/10/19 05:57:38;;;;;;;5.95;5.55;;;10.70;99.90;;;;;;5028425;28;20048;-88
2023/10/19 06:00:05;;;;;;;5.68;5.28;;;11.30;99.90;;;;;;5037319;28;20059;-87
2023/10/19 06:02:31;;;;;;;5.90;5.50;;;11.30;99.90;;;;;;5020295;28;20128;-89
2023/10/19 06:04:57;;;;;;;5.78;5.38;;;10.70;99.90;;;;;;5035651;28;20137;-89
2023/10/19 06:07:24;;;;;;;5.65;5.25;;;11.20;99.90;;;;;;5020506;28;20049;-89
2023/10/19 06:09:50;;;;;;;5.72;5.32;;;11.40;99.90;;;;;;5019086;28;20079;-88
2023/10/19 06:12:16;;;;;;;6.35;5.95;;;11.20;99.90;;;;;;5039055;28;20070;-88
2023/10/19 06:14:41;;;;;;;5.97;5.57;;;10.90;99.90;;;;;;5021875;28;20106;-89
2023/10/19 06:17:07;;;;;;;6.15;5.75;;;11.20;99.90;;;;;;5053599;28;20549;-89
2023/10/19 06:19:33;;;;;;;6.88;6.40;;;11.40;99.90;;;;;;5022731;28;20804;-88
2023/10/19 06:21:59;;;;;;;6.22;5.82;;;11.50;99.90;;;;;;5040241;28;20055;-89
2023/10/19 06:24:25;;;;;;;6.15;5.75;;;11.30;99.90;;;;;;5023542;28;20071;-90
2023/10/19 06:26:52;;;;;;;6.28;5.88;;;11.40;99.90;;;;;;5020120;28;20111;-89
2023/10/19 06:29:18;;;;;;;6.43;6.03;;;11.50;99.90;;;;;;5018310;28;20041;-89
2023/10/19 06:31:44;;;;;;;5.97;5.57;;;11.40;99.90;;;;;;5025718;28;20114;-91
2023/10/19 06:34:10;;;;;;;6.28;5.88;;;11.70;99.90;;;;;;5023179;28;20107;-92
2023/10/19 06:36:37;;;;;;;6.30;5.90;;;11.40;99.90;;;;;;5018609;28;20053;-92
2023/10/19 06:39:06;;;;;;;7.03;6.53;;;11.40;99.90;;;;;;5042112;28;20049;-89
2023/10/19 06:41:32;;;;;;;6.32;5.93;;;11.40;99.90;;;;;;5063801;28;20275;-90
2023/10/19 06:43:58;;;;;;;6.97;6.47;;;11.10;99.90;;;;;;5025388;28;20080;-90
2023/10/19 06:46:24;;;;;;;6.85;6.38;;;11.20;99.90;;;;;;5017974;28;20132;-91
2023/10/19 06:48:51;;;;;;;6.25;5.85;;;11.70;99.90;;;;;;5018682;28;20124;-91
2023/10/19 06:51:20;;;;;;;6.57;6.18;;;11.20;99.90;;;;;;5029028;28;20052;-93
2023/10/19 06:53:45;;;;;;;6.90;6.40;;;11.70;99.90;;;;;;5013989;28;20045;-90
2023/10/19 06:56:11;;;;;;;7.05;6.60;;;11.70;99.90;;;;;;5023461;28;20110;-90
2023/10/19 06:58:37;;;;;;;6.55;6.15;;;11.30;99.90;;;;;;5021517;28;20048;-89
2023/10/19 07:01:08;;;;;;;5.85;5.45;;;11.60;99.90;;;;;;5033622;28;20076;-89
2023/10/19 07:03:34;;;;;;;6.55;6.15;;;11.40;99.90;;;;;;5023281;28;20084;-89
2023/10/19 07:05:59;;;;;;;7.15;6.65;;;11.30;99.90;;;;;;5032511;28;20048;-91
2023/10/19 07:08:27;;;;;;;6.55;6.15;;;11.70;99.90;;;;;;5038406;28;20751;-92
2023/10/19 07:10:53;;;;;;;6.70;6.30;;;11.10;99.90;;;;;;5039679;28;20040;-91
2023/10/19 07:13:20;;;;;;;5.90;5.50;;;11.40;99.90;;;;;;5046075;28;20076;-93
2023/10/19 07:15:51;;;;;;;6.53;6.13;;;11.00;99.90;;;;;;5024002;28;20037;-91
2023/10/19 07:18:20;;;;;;;6.18;5.78;;;11.60;99.90;;;;;;5025938;28;20049;-95
2023/10/19 07:20:48;;;;;;;6.18;5.78;;;11.10;99.90;;;;;;5055548;28;20105;-92
2023/10/19 07:23:25;;;;;;;6.45;6.05;;;11.70;99.90;;;;;;5049595;28;20840;-93
2023/10/19 07:26:10;;;;;;;6.90;6.43;;;11.70;99.90;;;;;;5018297;28;20039;-91
2023/10/19 07:28:39;;;;;;;6.60;6.20;;;11.20;99.90;;;;;;5022344;28;20036;-90
2023/10/19 07:31:27;;;;;;;6.80;6.32;;;11.60;99.90;;;;;;5034462;28;20049;-92
2023/10/19 07:33:58;;;;;;;6.47;6.07;;;11.30;99.90;;;;;;5017945;28;20045;-92
2023/10/19 07:36:24;;;;;;;6.90;6.40;;;11.70;99.90;;;;;;5032574;28;20044;-93
2023/10/19 07:38:51;;;;;;;6.97;6.50;;;11.70;99.90;;;;;;5020127;28;20053;-93
2023/10/19 07:41:17;;;;;;;7.20;6.70;;;11.30;99.90;;;;;;5021978;28;20040;-93
2023/10/19 07:43:49;;;;;;;7.30;6.80;;;11.90;99.90;;;;;;5004023;28;20476;-93
2023/10/19 07:46:15;;;;;;;6.68;6.28;;;11.80;99.90;;;;;;5054409;28;20144;-92
2023/10/19 07:48:41;;;;;;;6.78;6.32;;;11.70;99.90;;;;;;5036068;28;20167;-94
2023/10/19 07:51:11;;;;;;;7.20;6.70;;;12.00;99.90;;;;;;5021849;28;20051;-92
2023/10/19 07:53:40;;;;;;;6.13;5.72;;;11.30;99.90;;;;;;5018813;28;20079;-91
2023/10/19 07:56:05;;;;;;;6.50;6.10;;;11.80;99.90;;;;;;5018806;28;20136;-92
2023/10/19 07:58:31;;;;;;;6.07;5.68;;;11.90;99.90;;;;;;5022488;28;20040;-93
2023/10/19 08:00:57;;;;;;;6.97;6.47;;;11.80;99.90;;;;;;5015792;28;20044;-93
2023/10/19 08:03:26;;;;;;;7.65;7.15;;;11.70;99.90;;;;;;5033147;28;20122;-93
2023/10/19 08:05:52;;;;;;;6.35;5.95;;;12.20;99.90;;;;;;5019300;28;20518;-92
2023/10/19 08:08:18;;;;;;;6.55;6.15;;;12.10;99.90;;;;;;5043789;28;20076;-90
2023/10/19 08:10:43;;;;;;;7.28;6.78;;;11.90;99.90;;;;;;5048434;28;20045;-88
2023/10/19 08:13:12;;;;;;;7.07;6.57;;;11.60;99.90;;;;;;5035229;28;20513;-94
2023/10/19 08:15:41;;;;;;;7.13;6.65;;;11.90;99.90;;;;;;5030379;28;20041;-96
2023/10/19 08:18:07;;;;;;;6.07;5.68;;;12.20;99.90;;;;;;5037418;28;20041;-91
2023/10/19 08:20:36;;;;;;;7.15;6.70;;;12.20;99.90;;;;;;5081545;28;20055;-91
2023/10/19 08:23:02;;;;;;;8.38;7.85;;;11.80;99.90;;;;;;5017194;28;20132;-93
2023/10/19 08:25:28;;;;;;;7.03;6.60;;;12.40;99.90;;;;;;5026447;28;20126;-91
2023/10/19 08:27:57;;;;;;;7.90;7.40;;;12.50;99.90;;;;;;5019655;28;20045;-90
2023/10/19 08:30:23;;;;;;;9.40;8.80;;;11.70;99.90;;;;;;5022855;28;20241;-93
2023/10/19 08:32:51;;;;;;;6.10;5.70;;;12.50;99.90;;;;;;5025895;28;20059;-91
2023/10/19 08:35:20;;;;;;;9.35;8.75;;;12.00;99.90;;;;;;5022188;28;20041;-89
2023/10/19 08:37:48;;;;;;;6.13;5.72;;;12.60;99.90;;;;;;5021246;28;20037;-90
2023/10/19 08:40:34;;;;;;;8.35;7.85;;;12.60;99.90;;;;;;5045538;28;20160;-94
2023/10/19 08:43:28;;;;;;;6.60;6.20;;;12.10;99.90;;;;;;5055629;28;20160;-95
2023/10/19 08:45:56;;;;;;;7.32;6.88;;;12.80;99.90;;;;;;5041324;28;20183;-94
2023/10/19 08:48:25;;;;;;;6.03;5.65;;;12.30;99.90;;;;;;5028420;28;20041;-93
2023/10/19 08:51:02;;;;;;;;;;;;;;;;;;;;;
2023/10/19 08:53:30;;;;;;;7.57;7.10;;;12.30;99.90;;;;;;5036514;28;20073;-89
2023/10/19 08:56:00;;;;;;;6.65;6.25;;;12.10;99.90;;;;;;5027053;28;20055;-91
2023/10/19 08:58:27;;;;;;;7.05;6.60;;;12.20;99.90;;;;;;5039387;28;20474;-93
2023/10/19 09:00:56;;;;;;;6.30;5.90;;;13.00;99.90;;;;;;5024527;28;20046;-91
2023/10/19 09:03:26;;;;;;;7.00;6.57;;;12.90;99.90;;;;;;5017529;28;20041;-92
2023/10/19 09:05:52;;;;;;;7.10;6.68;;;12.40;99.90;;;;;;5018045;28;20045;-91
2023/10/19 09:08:21;;;;;;;8.88;8.30;;;13.00;99.90;;;;;;5037930;28;20108;-93
2023/10/19 09:11:09;;;;;;;9.50;8.90;;;12.50;99.90;;;;;;5021482;28;20051;-91
2023/10/19 09:13:46;;;;;;;7.15;6.70;;;13.00;99.90;;;;;;5020740;28;20053;-95
2023/10/19 09:16:14;;;;;;;9.02;8.43;;;13.30;99.90;;;;;;5038919;28;20054;-88
2023/10/19 09:18:43;;;;;;;6.90;6.45;;;13.00;99.90;;;;;;5030032;28;20049;-89
2023/10/19 09:21:11;;;;;;;6.72;6.30;;;13.20;99.90;;;;;;5016061;28;20037;-92
2023/10/19 09:23:38;;;;;;;7.03;6.57;;;13.20;99.90;;;;;;5030136;28;20063;-92
2023/10/19 09:26:12;;;;;;;7.43;6.95;;;13.30;99.90;;;;;;5020474;28;20041;-96
2023/10/19 09:28:40;;;;;;;;;;;12.90;99.90;;;;;;5023058;28;20048;-95
2023/10/19 09:31:09;;;;;;;7.60;7.10;;;13.20;99.90;;;;;;5019177;28;19940;-94
2023/10/19 09:33:35;;;;;;;6.28;5.88;;;13.10;99.90;;;;;;5022590;28;20067;-94
2023/10/19 09:36:04;;;;;;;7.53;7.03;;;13.10;99.90;;;;;;5024012;28;20045;-89
2023/10/19 09:38:30;;;;;;;6.03;5.63;;;13.00;99.90;;;;;;5035178;28;20118;-91
2023/10/19 09:40:59;;;;;;;6.70;6.28;;;12.80;99.90;;;;;;5039321;28;20032;-90
2023/10/19 09:43:37;;;;;;;7.05;6.60;;;12.90;99.90;;;;;;5052619;28;20037;-90
2023/10/19 09:46:11;;;;;;;6.35;5.95;;;12.60;99.90;;;;;;5016742;28;20132;-86
2023/10/19 09:48:58;;;;;;;8.88;8.32;;;13.30;99.90;;;;;;5020491;28;20114;-93
2023/10/19 09:51:24;;;;;;;8.98;8.40;;;13.10;99.90;;;;;;5018823;28;20041;-89
2023/10/19 09:54:02;;;;;;;7.70;7.22;;;12.60;99.90;;;;;;5025383;28;20056;-91
2023/10/19 09:56:41;;;;;;;8.23;7.70;;;12.80;99.90;;;;;;5026068;28;20049;-91
2023/10/19 09:59:21;;;;;;;7.60;7.13;;;13.20;99.90;;;;;;5003676;28;20044;-90
2023/10/19 10:02:09;;;;;;;7.07;6.63;;;13.00;99.90;;;;;;5024303;28;20080;-87
2023/10/19 10:04:37;;;;;;;6.45;6.05;;;13.20;99.90;;;;;;5019783;28;20080;-92
2023/10/19 10:07:09;;;;;;;8.13;7.63;;;12.60;99.90;;;;;;5021598;28;20078;-91
2023/10/19 10:09:44;;;;;;;7.40;6.90;;;12.80;99.90;;;;;;5059215;28;20037;-92
2023/10/19 10:12:21;;;;;;;6.90;6.47;;;13.40;99.90;;;;;;5063976;28;20120;-90
2023/10/19 10:14:58;;;;;;;7.88;7.38;;;13.50;99.90;;;;;;5043628;28;20072;-89
2023/10/19 10:17:26;;;;;;;7.65;7.20;;;13.50;99.90;;;;;;5035268;28;20102;-89
2023/10/19 10:20:19;;;;;;;8.88;8.35;;;13.80;99.90;;;;;;5026943;28;20072;-89
2023/10/19 10:22:45;;;;;;;7.50;7.05;;;13.60;99.90;;;;;;5017805;28;20048;-89
2023/10/19 10:25:40;;;;;;;7.90;7.43;;;13.00;99.90;;;;;;5041010;28;20044;-88
2023/10/19 10:28:09;;;;;;;7.55;7.07;;;13.60;99.90;;;;;;5025439;28;20061;-92
2023/10/19 10:30:35;;;;;;;7.45;7.00;;;12.80;99.90;;;;;;5015813;28;20056;-91
2023/10/19 10:33:01;;;;;;;6.90;6.47;;;13.40;99.90;;;;;;5038122;28;20387;-90
2023/10/19 10:35:39;;;;;;;6.90;6.47;;;12.90;99.90;;;;;;5059461;28;20064;-90
2023/10/19 10:38:11;;;;;;;7.43;6.97;;;12.90;99.90;;;;;;5018803;28;20541;-89
2023/10/19 10:40:50;;;;;;;6.57;6.10;;;13.20;99.90;;;;;;5039139;28;20048;-88
2023/10/19 10:43:17;;;;;;;2.17;2.08;;;13.50;99.90;;;;;;5032608;28;20048;-89
2023/10/19 10:45:43;;;;;;;2.05;1.95;;;13.70;99.90;;;;;;5050284;28;20139;-86
2023/10/19 10:48:18;;;;;;;1.95;1.85;;;13.50;99.90;;;;;;5032481;28;22088;-86
2023/10/19 10:50:46;;;;;;;1.85;1.75;;;13.90;99.90;;;;;;5039972;28;20041;-88
2023/10/19 10:53:17;;;;;;;1.95;1.85;;;13.60;99.90;;;;;;5016821;28;20418;-87
2023/10/19 10:55:43;;;;;;;1.70;1.60;;;13.20;99.90;;;;;;5018102;28;20048;-88
2023/10/19 10:58:14;;;;;;;1.90;1.80;;;13.40;99.90;;;;;;5029979;28;20056;-88
2023/10/19 11:00:46;;;;;;;1.83;1.73;;;13.70;99.90;;;;;;5022947;28;20144;-88
2023/10/19 11:03:13;;;;;;;1.98;1.88;;;13.90;99.90;;;;;;5033654;28;20049;-89
2023/10/19 11:05:39;;;;;;;1.95;1.85;;;13.40;99.90;;;;;;5016886;28;20071;-88
2023/10/19 11:08:13;;;;;;;1.90;1.80;;;13.70;99.90;;;;;;5015551;28;20511;-89
2023/10/19 11:10:39;;;;;;;;;;;13.00;99.90;;;;;;5018371;28;20045;-87
2023/10/19 11:13:22;;;;;;;2.58;2.47;;;13.00;99.90;;;;;;5032798;28;19920;-88
2023/10/19 11:15:53;;;;;;;1.55;1.45;;;12.80;99.90;;;;;;5029893;28;20049;-87
2023/10/19 11:18:40;;;;;;;2.08;1.98;;;13.40;99.90;;;;;;5037531;28;20040;-86
2023/10/19 11:21:09;;;;;;;1.95;1.85;;;13.60;99.90;;;;;;5065942;28;20044;-87
2023/10/19 11:23:42;;;;;;;1.80;1.70;;;13.10;99.90;;;;;;5018829;28;20098;-87
2023/10/19 11:26:21;;;;;;;1.45;1.40;;;13.00;99.90;;;;;;5016155;28;20522;-87
2023/10/19 11:28:56;;;;;;;1.60;1.50;;;13.10;99.90;;;;;;5036567;28;20036;-86
2023/10/19 11:31:23;;;;;;;1.70;1.60;;;13.60;99.90;;;;;;5032030;28;20089;-87
2023/10/19 11:33:53;;;;;;;1.88;1.77;;;13.90;99.90;;;;;;5034038;28;20048;-88
2023/10/19 11:36:20;;;;;;;2.05;1.95;;;13.60;99.90;;;;;;5032355;28;20509;-89
2023/10/19 11:38:51;;;;;;;2.05;1.95;;;14.10;99.90;;;;;;5015014;28;20494;-88
2023/10/19 11:41:17;;;;;;;2.10;2.00;;;13.80;99.90;;;;;;5015809;28;20631;-86
2023/10/19 11:43:45;;;;;;;2.25;2.15;;;14.30;99.90;;;;;;5051342;28;20051;-86
2023/10/19 11:46:25;;;;;;;3.13;2.92;;;14.70;99.90;;;;;;5019867;28;20049;-86
2023/10/19 11:48:50;;;;;;;2.60;2.50;;;14.50;99.90;;;;;;5011419;28;20108;-84
2023/10/19 11:51:16;;;;;;;2.05;1.95;;;14.00;99.90;;;;;;5011165;28;20048;-87
2023/10/19 11:53:45;;;;;;;2.65;2.47;;;14.80;99.90;;;;;;5032926;28;20048;-85
2023/10/19 11:56:12;;;;;;;2.30;2.20;;;14.60;99.90;;;;;;5030949;28;20045;-87
2023/10/19 11:58:41;;;;;;;2.30;2.20;;;14.00;99.90;;;;;;5043918;28;20167;-87
2023/10/19 12:01:08;;;;;;;2.10;2.00;;;14.70;99.90;;;;;;5019625;28;20478;-86
2023/10/19 12:03:39;;;;;;;2.13;2.03;;;14.30;99.90;;;;;;5027701;28;20096;-86
2023/10/19 12:06:08;;;;;;;2.22;2.13;;;14.20;99.90;;;;;;5027132;28;20072;-88
2023/10/19 12:08:35;;;;;;;2.20;2.10;;;14.40;99.90;;;;;;5027938;28;20040;-88
2023/10/19 12:11:03;;;;;;;2.00;1.90;;;14.90;99.90;;;;;;5030739;28;20494;-86
2023/10/19 12:13:30;;;;;;;2.10;2.00;;;14.00;99.90;;;;;;5011222;28;20465;-86
2023/10/19 12:15:58;;;;;;;1.95;1.85;;;14.80;99.90;;;;;;5013341;28;20137;-89
2023/10/19 12:18:26;;;;;;;2.47;2.38;;;13.90;99.90;;;;;;5030615;28;20124;-87
2023/10/19 12:20:56;;;;;;;2.20;2.10;;;14.00;99.90;;;;;;5013283;28;20040;-85
2023/10/19 12:23:23;;;;;;;2.17;2.08;;;14.20;99.90;;;;;;5037726;28;20045;-86
2023/10/19 12:25:49;;;;;;;2.45;2.35;;;14.60;99.90;;;;;;5034653;28;20607;-86
2023/10/19 12:28:14;;;;;;;1.92;1.83;;;15.30;99.90;;;;;;5013422;28;20053;-86
2023/10/19 12:30:41;;;;;;;2.00;1.90;;;14.90;99.90;;;;;;5010537;28;20460;-85
2023/10/19 12:33:11;;;;;;;1.77;1.67;;;15.30;99.90;;;;;;5025224;28;20049;-86
2023/10/19 12:35:53;;;;;;;2.00;1.90;;;14.70;99.90;;;;;;5029237;28;20045;-86
2023/10/19 12:38:22;;;;;;;1.80;1.70;;;14.80;99.90;;;;;;5015850;28;20045;-87
2023/10/19 12:40:50;;;;;;;2.30;2.20;;;15.10;99.90;;;;;;5008867;28;20052;-85
2023/10/19 12:43:18;;;;;;;2.17;2.08;;;14.50;99.90;;;;;;5029439;28;20140;-85
2023/10/19 12:45:50;;;;;;;2.08;1.98;;;14.60;99.90;;;;;;5027059;28;20052;-83
2023/10/19 12:48:16;;;;;;;2.00;1.90;;;14.20;99.90;;;;;;5010757;28;20075;-84
2023/10/19 12:50:42;;;;;;;1.70;1.60;;;14.80;99.90;;;;;;5010867;28;20597;-86
2023/10/19 12:53:09;;;;;;;2.60;2.50;;;14.30;99.90;;;;;;5028404;28;20049;-86
2023/10/19 12:55:37;;;;;;;1.90;1.80;;;14.10;99.90;;;;;;5014581;28;20053;-87
2023/10/19 12:58:07;;;;;;;2.20;2.10;;;14.80;99.90;;;;;;5031663;28;20053;-85
2023/10/19 13:00:40;;;;;;;2.15;2.05;;;14.00;99.90;;;;;;5018936;28;20048;-86
2023/10/19 13:03:13;;;;;;;1.90;1.80;;;14.10;99.90;;;;;;5033432;28;20080;-87
2023/10/19 13:05:40;;;;;;;1.98;1.88;;;13.90;99.90;;;;;;5030258;28;20049;-86
2023/10/19 13:08:07;;;;;;;1.90;1.80;;;14.60;99.90;;;;;;5032830;28;20137;-85
2023/10/19 13:10:35;;;;;;;2.03;1.92;;;14.00;99.90;;;;;;5032198;28;20402;-86
2023/10/19 13:13:05;;;;;;;2.30;2.20;;;14.20;99.90;;;;;;5016906;28;20755;-85
2023/10/19 13:15:36;;;;;;;1.90;1.80;;;14.60;99.90;;;;;;5017875;28;20041;-86
2023/10/19 13:18:02;;;;;;;2.10;2.00;;;14.50;99.90;;;;;;5063528;28;20060;-86
2023/10/19 13:20:33;;;;;;;2.10;2.00;;;14.30;99.90;;;;;;5027385;28;20064;-85
2023/10/19 13:23:15;;;;;;;2.22;2.13;;;14.30;99.90;;;;;;5017584;28;20075;-87